sensor_id;sensor_type;location;lat;lon;timestamp;temperature;humidity
6879;DHT22;3478;51.462;7.338;2023-02-12T00:01:37;8.00;99.90
6879;DHT22;3478;51.462;7.338;2023-02-12T00:06:39;7.90;99.90
6879;DHT22;3478;51.462;7.338;2023-02-12T00:11:42;7.90;99.90
6879;DHT22;3478;51.462;7.338;2023-02-12T00:16:44;7.90;99.90
6879;DHT22;3478;51.462;7.338;2023-02-12T00:21:45;7.90;99.90
6879;DHT22;3478;51.462;7.338;2023-02-12T00:26:49;7.90;99.90
6879;DHT22;3478;51.462;7.338;2023-02-12T00:31:50;7.90;99.90
6879;DHT22;3478;51.462;7.338;2023-02-12T00:36:52;7.90;99.90
6879;DHT22;3478;51.462;7.338;2023-02-12T00:41:55;7.90;99.90
6879;DHT22;3478;51.462;7.338;2023-02-12T00:46:57;7.80;99.90
6879;DHT22;3478;51.462;7.338;2023-02-12T00:52:03;7.90;99.90
6879;DHT22;3478;51.462;7.338;2023-02-12T00:57:06;7.80;99.90
6879;DHT22;3478;51.462;7.338;2023-02-12T01:02:08;7.70;99.90
6879;DHT22;3478;51.462;7.338;2023-02-12T01:07:09;7.80;99.90
6879;DHT22;3478;51.462;7.338;2023-02-12T01:12:13;7.70;99.90
6879;DHT22;3478;51.462;7.338;2023-02-12T01:17:14;7.70;99.90
6879;DHT22;3478;51.462;7.338;2023-02-12T01:22:16;7.70;99.90
6879;DHT22;3478;51.462;7.338;2023-02-12T01:27:19;7.70;99.90
6879;DHT22;3478;51.462;7.338;2023-02-12T01:32:21;7.70;99.90
6879;DHT22;3478;51.462;7.338;2023-02-12T01:37:23;7.70;99.90
6879;DHT22;3478;51.462;7.338;2023-02-12T01:42:27;7.70;99.90
6879;DHT22;3478;51.462;7.338;2023-02-12T01:47:29;7.70;99.90
6879;DHT22;3478;51.462;7.338;2023-02-12T01:52:33;7.70;99.90
6879;DHT22;3478;51.462;7.338;2023-02-12T01:57:41;7.70;99.90
6879;DHT22;3478;51.462;7.338;2023-02-12T02:02:46;7.70;99.90
6879;DHT22;3478;51.462;7.338;2023-02-12T02:07:49;7.80;99.90
6879;DHT22;3478;51.462;7.338;2023-02-12T02:12:52;7.70;99.90
6879;DHT22;3478;51.462;7.338;2023-02-12T02:18:14;7.70;99.90
6879;DHT22;3478;51.462;7.338;2023-02-12T02:29:10;7.70;99.90
6879;DHT22;3478;51.462;7.338;2023-02-12T02:34:20;7.70;99.90
6879;DHT22;3478;51.462;7.338;2023-02-12T02:39:31;7.70;99.90
6879;DHT22;3478;51.462;7.338;2023-02-12T02:44:38;7.70;99.90
6879;DHT22;3478;51.462;7.338;2023-02-12T02:49:46;7.80;99.90
6879;DHT22;3478;51.462;7.338;2023-02-12T02:54:53;7.80;99.90
6879;DHT22;3478;51.462;7.338;2023-02-12T03:00:04;7.80;99.90
6879;DHT22;3478;51.462;7.338;2023-02-12T03:05:09;7.80;99.90
6879;DHT22;3478;51.462;7.338;2023-02-12T03:10:16;7.70;99.90
6879;DHT22;3478;51.462;7.338;2023-02-12T03:15:22;7.70;99.90
6879;DHT22;3478;51.462;7.338;2023-02-12T03:20:31;7.70;99.90
6879;DHT22;3478;51.462;7.338;2023-02-12T03:25:39;7.70;99.90
6879;DHT22;3478;51.462;7.338;2023-02-12T03:30:44;7.70;99.90
6879;DHT22;3478;51.462;7.338;2023-02-12T03:35:54;7.60;99.90
6879;DHT22;3478;51.462;7.338;2023-02-12T03:41:02;7.60;99.90
6879;DHT22;3478;51.462;7.338;2023-02-12T03:46:13;7.60;99.90
6879;DHT22;3478;51.462;7.338;2023-02-12T03:51:20;7.70;99.90
6879;DHT22;3478;51.462;7.338;2023-02-12T03:56:26;7.70;99.90
6879;DHT22;3478;51.462;7.338;2023-02-12T04:01:31;7.70;99.90
6879;DHT22;3478;51.462;7.338;2023-02-12T04:06:34;7.70;99.90
6879;DHT22;3478;51.462;7.338;2023-02-12T04:11:48;7.80;99.90
6879;DHT22;3478;51.462;7.338;2023-02-12T04:17:01;7.70;99.90
6879;DHT22;3478;51.462;7.338;2023-02-12T04:22:16;7.80;99.90
6879;DHT22;3478;51.462;7.338;2023-02-12T04:27:22;7.70;99.90
6879;DHT22;3478;51.462;7.338;2023-02-12T04:32:32;7.70;99.90
6879;DHT22;3478;51.462;7.338;2023-02-12T04:37:40;7.70;99.90
6879;DHT22;3478;51.462;7.338;2023-02-12T04:42:42;7.70;99.90
6879;DHT22;3478;51.462;7.338;2023-02-12T04:47:45;7.70;99.90
6879;DHT22;3478;51.462;7.338;2023-02-12T04:52:48;7.80;99.90
6879;DHT22;3478;51.462;7.338;2023-02-12T04:57:50;7.80;99.90
6879;DHT22;3478;51.462;7.338;2023-02-12T05:02:52;7.80;99.90
6879;DHT22;3478;51.462;7.338;2023-02-12T05:07:55;7.80;99.90
6879;DHT22;3478;51.462;7.338;2023-02-12T05:12:57;7.80;99.90
6879;DHT22;3478;51.462;7.338;2023-02-12T05:17:59;7.80;99.90
6879;DHT22;3478;51.462;7.338;2023-02-12T05:23:02;7.80;99.90
6879;DHT22;3478;51.462;7.338;2023-02-12T05:28:04;7.80;99.90
6879;DHT22;3478;51.462;7.338;2023-02-12T05:33:05;7.80;99.90
6879;DHT22;3478;51.462;7.338;2023-02-12T05:38:09;7.80;99.90
6879;DHT22;3478;51.462;7.338;2023-02-12T05:43:10;7.80;99.90
6879;DHT22;3478;51.462;7.338;2023-02-12T05:48:13;7.80;99.90
6879;DHT22;3478;51.462;7.338;2023-02-12T05:53:16;7.80;99.90
6879;DHT22;3478;51.462;7.338;2023-02-12T05:58:18;7.80;99.90
6879;DHT22;3478;51.462;7.338;2023-02-12T06:03:19;7.80;99.90
6879;DHT22;3478;51.462;7.338;2023-02-12T06:08:23;7.70;99.90
6879;DHT22;3478;51.462;7.338;2023-02-12T06:13:24;7.60;99.90
6879;DHT22;3478;51.462;7.338;2023-02-12T06:18:27;7.60;99.90
6879;DHT22;3478;51.462;7.338;2023-02-12T06:23:30;7.60;99.90
6879;DHT22;3478;51.462;7.338;2023-02-12T06:28:32;7.60;99.90
6879;DHT22;3478;51.462;7.338;2023-02-12T06:33:34;7.60;99.90
6879;DHT22;3478;51.462;7.338;2023-02-12T06:38:37;7.60;99.90
6879;DHT22;3478;51.462;7.338;2023-02-12T06:43:39;7.60;99.90
6879;DHT22;3478;51.462;7.338;2023-02-12T06:48:41;7.60;99.90
6879;DHT22;3478;51.462;7.338;2023-02-12T06:53:44;7.60;99.90
6879;DHT22;3478;51.462;7.338;2023-02-12T06:58:50;7.70;99.90
6879;DHT22;3478;51.462;7.338;2023-02-12T07:03:54;7.70;99.90
6879;DHT22;3478;51.462;7.338;2023-02-12T07:08:57;7.80;99.90
6879;DHT22;3478;51.462;7.338;2023-02-12T07:13:59;7.70;99.90
6879;DHT22;3478;51.462;7.338;2023-02-12T07:19:01;7.70;99.90
6879;DHT22;3478;51.462;7.338;2023-02-12T07:24:05;7.80;99.90
6879;DHT22;3478;51.462;7.338;2023-02-12T07:29:07;7.80;99.90
6879;DHT22;3478;51.462;7.338;2023-02-12T07:34:09;7.80;99.90
6879;DHT22;3478;51.462;7.338;2023-02-12T07:39:13;7.90;99.90
6879;DHT22;3478;51.462;7.338;2023-02-12T07:44:14;7.90;99.90
6879;DHT22;3478;51.462;7.338;2023-02-12T07:49:18;7.80;99.90
6879;DHT22;3478;51.462;7.338;2023-02-12T07:54:22;7.90;99.90
6879;DHT22;3478;51.462;7.338;2023-02-12T07:59:24;7.80;99.90
6879;DHT22;3478;51.462;7.338;2023-02-12T08:04:26;7.90;99.90
6879;DHT22;3478;51.462;7.338;2023-02-12T08:09:30;7.90;99.90
6879;DHT22;3478;51.462;7.338;2023-02-12T08:14:32;7.90;99.90
6879;DHT22;3478;51.462;7.338;2023-02-12T08:19:34;7.90;99.90
6879;DHT22;3478;51.462;7.338;2023-02-12T08:24:37;8.00;99.90
6879;DHT22;3478;51.462;7.338;2023-02-12T08:29:39;8.10;99.90
6879;DHT22;3478;51.462;7.338;2023-02-12T08:34:40;8.30;99.90
6879;DHT22;3478;51.462;7.338;2023-02-12T08:39:44;8.40;99.90
6879;DHT22;3478;51.462;7.338;2023-02-12T08:44:45;8.40;99.90
6879;DHT22;3478;51.462;7.338;2023-02-12T08:49:47;8.50;99.90
6879;DHT22;3478;51.462;7.338;2023-02-12T08:54:50;8.60;99.90
6879;DHT22;3478;51.462;7.338;2023-02-12T08:59:52;8.60;99.90
6879;DHT22;3478;51.462;7.338;2023-02-12T09:04:54;8.70;99.90
6879;DHT22;3478;51.462;7.338;2023-02-12T09:09:57;8.70;99.90
6879;DHT22;3478;51.462;7.338;2023-02-12T09:14:59;8.80;99.90
6879;DHT22;3478;51.462;7.338;2023-02-12T09:20:01;8.80;99.90
6879;DHT22;3478;51.462;7.338;2023-02-12T09:25:05;8.90;99.90
6879;DHT22;3478;51.462;7.338;2023-02-12T09:30:08;9.00;99.90
6879;DHT22;3478;51.462;7.338;2023-02-12T09:35:10;9.00;99.90
6879;DHT22;3478;51.462;7.338;2023-02-12T09:40:21;9.00;99.90
6879;DHT22;3478;51.462;7.338;2023-02-12T09:45:26;9.20;99.90
6879;DHT22;3478;51.462;7.338;2023-02-12T09:50:39;9.30;99.90
6879;DHT22;3478;51.462;7.338;2023-02-12T09:55:45;9.60;99.90
6879;DHT22;3478;51.462;7.338;2023-02-12T10:00:47;9.60;99.90
6879;DHT22;3478;51.462;7.338;2023-02-12T10:05:51;9.70;99.90
6879;DHT22;3478;51.462;7.338;2023-02-12T10:11:04;9.80;99.90
6879;DHT22;3478;51.462;7.338;2023-02-12T10:16:16;9.80;99.90
6879;DHT22;3478;51.462;7.338;2023-02-12T10:21:30;10.10;99.90
6879;DHT22;3478;51.462;7.338;2023-02-12T10:26:39;10.30;99.90
6879;DHT22;3478;51.462;7.338;2023-02-12T10:31:43;10.50;99.90
6879;DHT22;3478;51.462;7.338;2023-02-12T10:36:47;10.50;99.90
6879;DHT22;3478;51.462;7.338;2023-02-12T10:41:57;10.60;99.90
6879;DHT22;3478;51.462;7.338;2023-02-12T10:47:01;10.40;99.90
6879;DHT22;3478;51.462;7.338;2023-02-12T10:52:09;10.40;99.90
6879;DHT22;3478;51.462;7.338;2023-02-12T10:57:19;10.30;99.90
6879;DHT22;3478;51.462;7.338;2023-02-12T11:02:25;10.50;99.90
6879;DHT22;3478;51.462;7.338;2023-02-12T11:07:30;10.80;99.90
6879;DHT22;3478;51.462;7.338;2023-02-12T11:12:47;10.90;99.90
6879;DHT22;3478;51.462;7.338;2023-02-12T11:17:56;11.10;99.90
6879;DHT22;3478;51.462;7.338;2023-02-12T11:23:00;11.10;99.90
6879;DHT22;3478;51.462;7.338;2023-02-12T11:28:14;11.00;99.90
6879;DHT22;3478;51.462;7.338;2023-02-12T11:33:23;10.90;99.90
6879;DHT22;3478;51.462;7.338;2023-02-12T11:38:33;10.90;99.90
6879;DHT22;3478;51.462;7.338;2023-02-12T11:43:38;11.00;99.90
6879;DHT22;3478;51.462;7.338;2023-02-12T11:48:43;11.00;99.90
6879;DHT22;3478;51.462;7.338;2023-02-12T11:53:49;11.00;99.90
6879;DHT22;3478;51.462;7.338;2023-02-12T11:58:53;10.80;99.90
6879;DHT22;3478;51.462;7.338;2023-02-12T12:04:13;10.70;99.90
6879;DHT22;3478;51.462;7.338;2023-02-12T12:09:20;10.70;99.90
6879;DHT22;3478;51.462;7.338;2023-02-12T12:14:29;10.80;99.90
6879;DHT22;3478;51.462;7.338;2023-02-12T12:19:37;10.90;99.90
6879;DHT22;3478;51.462;7.338;2023-02-12T12:24:57;10.90;99.90
6879;DHT22;3478;51.462;7.338;2023-02-12T12:30:11;11.10;99.90
6879;DHT22;3478;51.462;7.338;2023-02-12T12:40:49;11.10;99.90
6879;DHT22;3478;51.462;7.338;2023-02-12T12:51:59;10.90;99.90
6879;DHT22;3478;51.462;7.338;2023-02-12T12:57:09;10.80;99.90
6879;DHT22;3478;51.462;7.338;2023-02-12T13:02:48;10.80;99.90
6879;DHT22;3478;51.462;7.338;2023-02-12T13:08:01;10.80;99.90
6879;DHT22;3478;51.462;7.338;2023-02-12T13:13:25;10.80;99.90
6879;DHT22;3478;51.462;7.338;2023-02-12T13:18:44;10.80;99.90
6879;DHT22;3478;51.462;7.338;2023-02-12T13:23:52;10.70;99.90
6879;DHT22;3478;51.462;7.338;2023-02-12T13:29:00;10.80;99.90
6879;DHT22;3478;51.462;7.338;2023-02-12T13:34:13;10.70;99.90
6879;DHT22;3478;51.462;7.338;2023-02-12T13:39:24;10.60;99.90
6879;DHT22;3478;51.462;7.338;2023-02-12T13:44:33;10.50;99.90
6879;DHT22;3478;51.462;7.338;2023-02-12T13:49:43;10.50;99.90
6879;DHT22;3478;51.462;7.338;2023-02-12T13:54:53;10.50;99.90
6879;DHT22;3478;51.462;7.338;2023-02-12T13:59:56;10.50;99.90
6879;DHT22;3478;51.462;7.338;2023-02-12T14:05:02;10.40;99.90
6879;DHT22;3478;51.462;7.338;2023-02-12T14:10:06;10.40;99.90
6879;DHT22;3478;51.462;7.338;2023-02-12T14:15:27;10.40;99.90
6879;DHT22;3478;51.462;7.338;2023-02-12T14:20:32;10.40;99.90
6879;DHT22;3478;51.462;7.338;2023-02-12T14:25:42;10.30;99.90
6879;DHT22;3478;51.462;7.338;2023-02-12T14:30:44;10.40;99.90
6879;DHT22;3478;51.462;7.338;2023-02-12T14:35:49;10.30;99.90
6879;DHT22;3478;51.462;7.338;2023-02-12T14:41:15;10.30;99.90
6879;DHT22;3478;51.462;7.338;2023-02-12T14:46:46;10.20;99.90
6879;DHT22;3478;51.462;7.338;2023-02-12T14:51:56;10.20;99.90
6879;DHT22;3478;51.462;7.338;2023-02-12T14:57:00;10.10;99.90
6879;DHT22;3478;51.462;7.338;2023-02-12T15:02:04;10.00;99.90
6879;DHT22;3478;51.462;7.338;2023-02-12T15:07:13;10.00;99.90
6879;DHT22;3478;51.462;7.338;2023-02-12T15:12:20;10.00;99.90
6879;DHT22;3478;51.462;7.338;2023-02-12T15:17:28;10.00;99.90
6879;DHT22;3478;51.462;7.338;2023-02-12T15:22:37;10.00;99.90
6879;DHT22;3478;51.462;7.338;2023-02-12T15:27:41;10.00;99.90
6879;DHT22;3478;51.462;7.338;2023-02-12T15:32:45;10.00;99.90
6879;DHT22;3478;51.462;7.338;2023-02-12T15:37:49;9.90;99.90
6879;DHT22;3478;51.462;7.338;2023-02-12T15:42:53;9.90;99.90
6879;DHT22;3478;51.462;7.338;2023-02-12T15:53:17;9.90;99.90
6879;DHT22;3478;51.462;7.338;2023-02-12T15:58:22;9.80;99.90
6879;DHT22;3478;51.462;7.338;2023-02-12T16:03:26;9.80;99.90
6879;DHT22;3478;51.462;7.338;2023-02-12T16:08:32;9.80;99.90
6879;DHT22;3478;51.462;7.338;2023-02-12T16:13:35;9.70;99.90
6879;DHT22;3478;51.462;7.338;2023-02-12T16:18:38;9.60;99.90
6879;DHT22;3478;51.462;7.338;2023-02-12T16:23:43;9.60;99.90
6879;DHT22;3478;51.462;7.338;2023-02-12T16:28:46;9.60;99.90
6879;DHT22;3478;51.462;7.338;2023-02-12T16:33:50;9.60;99.90
6879;DHT22;3478;51.462;7.338;2023-02-12T16:38:56;9.50;99.90
6879;DHT22;3478;51.462;7.338;2023-02-12T16:44:22;9.50;99.90
6879;DHT22;3478;51.462;7.338;2023-02-12T16:49:26;9.50;99.90
6879;DHT22;3478;51.462;7.338;2023-02-12T16:54:31;9.50;99.90
6879;DHT22;3478;51.462;7.338;2023-02-12T16:59:33;9.40;99.90
6879;DHT22;3478;51.462;7.338;2023-02-12T17:04:36;9.40;99.90
6879;DHT22;3478;51.462;7.338;2023-02-12T17:09:39;9.30;99.90
6879;DHT22;3478;51.462;7.338;2023-02-12T17:14:41;9.30;99.90
6879;DHT22;3478;51.462;7.338;2023-02-12T17:19:43;9.20;99.90
6879;DHT22;3478;51.462;7.338;2023-02-12T17:24:49;9.20;99.90
6879;DHT22;3478;51.462;7.338;2023-02-12T17:29:52;9.10;99.90
6879;DHT22;3478;51.462;7.338;2023-02-12T17:34:54;9.10;99.90
6879;DHT22;3478;51.462;7.338;2023-02-12T17:39:57;9.10;99.90
6879;DHT22;3478;51.462;7.338;2023-02-12T17:45:00;9.10;99.90
6879;DHT22;3478;51.462;7.338;2023-02-12T17:50:02;9.10;99.90
6879;DHT22;3478;51.462;7.338;2023-02-12T17:55:06;9.10;99.90
6879;DHT22;3478;51.462;7.338;2023-02-12T18:00:11;9.10;99.90
6879;DHT22;3478;51.462;7.338;2023-02-12T18:05:14;9.10;99.90
6879;DHT22;3478;51.462;7.338;2023-02-12T18:10:18;9.10;99.90
6879;DHT22;3478;51.462;7.338;2023-02-12T18:15:19;9.10;99.90
6879;DHT22;3478;51.462;7.338;2023-02-12T18:20:21;9.10;99.90
6879;DHT22;3478;51.462;7.338;2023-02-12T18:25:24;9.00;99.90
6879;DHT22;3478;51.462;7.338;2023-02-12T18:30:26;9.00;99.90
6879;DHT22;3478;51.462;7.338;2023-02-12T18:35:28;9.00;99.90
6879;DHT22;3478;51.462;7.338;2023-02-12T18:40:31;9.00;99.90
6879;DHT22;3478;51.462;7.338;2023-02-12T18:45:33;9.00;99.90
6879;DHT22;3478;51.462;7.338;2023-02-12T18:50:35;9.00;99.90
6879;DHT22;3478;51.462;7.338;2023-02-12T18:55:39;9.00;99.90
6879;DHT22;3478;51.462;7.338;2023-02-12T19:00:40;9.00;99.90
6879;DHT22;3478;51.462;7.338;2023-02-12T19:05:42;9.00;99.90
6879;DHT22;3478;51.462;7.338;2023-02-12T19:10:45;8.90;99.90
6879;DHT22;3478;51.462;7.338;2023-02-12T19:15:48;8.90;99.90
6879;DHT22;3478;51.462;7.338;2023-02-12T19:20:50;8.90;99.90
6879;DHT22;3478;51.462;7.338;2023-02-12T19:25:53;8.90;99.90
6879;DHT22;3478;51.462;7.338;2023-02-12T19:30:55;8.90;99.90
6879;DHT22;3478;51.462;7.338;2023-02-12T19:35:57;8.90;99.90
6879;DHT22;3478;51.462;7.338;2023-02-12T19:41:04;8.90;99.90
6879;DHT22;3478;51.462;7.338;2023-02-12T19:46:08;8.80;99.90
6879;DHT22;3478;51.462;7.338;2023-02-12T19:51:12;8.80;99.90
6879;DHT22;3478;51.462;7.338;2023-02-12T19:56:16;8.80;99.90
6879;DHT22;3478;51.462;7.338;2023-02-12T20:01:19;8.80;99.90
6879;DHT22;3478;51.462;7.338;2023-02-12T20:06:23;8.80;99.90
6879;DHT22;3478;51.462;7.338;2023-02-12T20:11:31;8.80;99.90
6879;DHT22;3478;51.462;7.338;2023-02-12T20:16:34;8.70;99.90
6879;DHT22;3478;51.462;7.338;2023-02-12T20:21:38;8.70;99.90
6879;DHT22;3478;51.462;7.338;2023-02-12T20:26:42;8.70;99.90
6879;DHT22;3478;51.462;7.338;2023-02-12T20:31:44;8.70;99.90
6879;DHT22;3478;51.462;7.338;2023-02-12T20:36:46;8.70;99.90
6879;DHT22;3478;51.462;7.338;2023-02-12T20:41:49;8.80;99.90
6879;DHT22;3478;51.462;7.338;2023-02-12T20:46:51;8.80;99.90
6879;DHT22;3478;51.462;7.338;2023-02-12T20:51:56;8.80;99.90
6879;DHT22;3478;51.462;7.338;2023-02-12T20:56:59;8.70;99.90
6879;DHT22;3478;51.462;7.338;2023-02-12T21:02:06;8.80;99.90
6879;DHT22;3478;51.462;7.338;2023-02-12T21:07:08;8.80;99.90
6879;DHT22;3478;51.462;7.338;2023-02-12T21:12:12;8.70;99.90
6879;DHT22;3478;51.462;7.338;2023-02-12T21:17:14;8.70;99.90
6879;DHT22;3478;51.462;7.338;2023-02-12T21:22:16;8.60;99.90
6879;DHT22;3478;51.462;7.338;2023-02-12T21:27:19;8.60;99.90
6879;DHT22;3478;51.462;7.338;2023-02-12T21:32:21;8.60;99.90
6879;DHT22;3478;51.462;7.338;2023-02-12T21:37:24;8.60;99.90
6879;DHT22;3478;51.462;7.338;2023-02-12T21:42:29;8.60;99.90
6879;DHT22;3478;51.462;7.338;2023-02-12T21:47:30;8.60;99.90
6879;DHT22;3478;51.462;7.338;2023-02-12T21:52:32;8.60;99.90
6879;DHT22;3478;51.462;7.338;2023-02-12T21:57:36;8.60;99.90
6879;DHT22;3478;51.462;7.338;2023-02-12T22:02:38;8.60;99.90
6879;DHT22;3478;51.462;7.338;2023-02-12T22:07:40;8.50;99.90
6879;DHT22;3478;51.462;7.338;2023-02-12T22:12:43;8.50;99.90
6879;DHT22;3478;51.462;7.338;2023-02-12T22:17:45;8.60;99.90
6879;DHT22;3478;51.462;7.338;2023-02-12T22:22:47;8.60;99.90
6879;DHT22;3478;51.462;7.338;2023-02-12T22:27:53;8.60;99.90
6879;DHT22;3478;51.462;7.338;2023-02-12T22:32:55;8.60;99.90
6879;DHT22;3478;51.462;7.338;2023-02-12T22:37:57;8.50;99.90
6879;DHT22;3478;51.462;7.338;2023-02-12T22:43:00;8.50;99.90
6879;DHT22;3478;51.462;7.338;2023-02-12T22:48:02;8.50;99.90
6879;DHT22;3478;51.462;7.338;2023-02-12T22:53:04;8.50;99.90
6879;DHT22;3478;51.462;7.338;2023-02-12T22:58:07;8.60;99.90
6879;DHT22;3478;51.462;7.338;2023-02-12T23:03:09;8.60;99.90
6879;DHT22;3478;51.462;7.338;2023-02-12T23:08:11;8.60;99.90
6879;DHT22;3478;51.462;7.338;2023-02-12T23:13:14;8.60;99.90
6879;DHT22;3478;51.462;7.338;2023-02-12T23:18:16;8.60;99.90
6879;DHT22;3478;51.462;7.338;2023-02-12T23:23:19;8.60;99.90
6879;DHT22;3478;51.462;7.338;2023-02-12T23:28:22;8.60;99.90
6879;DHT22;3478;51.462;7.338;2023-02-12T23:33:24;8.60;99.90
6879;DHT22;3478;51.462;7.338;2023-02-12T23:38:29;8.60;99.90
6879;DHT22;3478;51.462;7.338;2023-02-12T23:43:32;8.60;99.90
6879;DHT22;3478;51.462;7.338;2023-02-12T23:48:34;8.60;99.90
6879;DHT22;3478;51.462;7.338;2023-02-12T23:53:35;8.60;99.90
6879;DHT22;3478;51.462;7.338;2023-02-12T23:58:39;8.60;99.90
